Overview Statistics Trail Chart Weather Telemetry Raw packets
 

This is the latest recevied weather packets stored in our database for station/object Waldburg. If no packets are shown the sender has not sent any weather packets the latest 10 day(s).

<< 1 2 3 4 >>
Time Temp. Humidity Pressure Rain* Wind** Luminosity Snow
1788717732 20.56° C 59% 1021.3 hPa 0 mm - - -
1788715930 21.67° C 58% 1021.3 hPa 0 mm - - -
1788714131 22.22° C 57% 1021.5 hPa 0 mm - - -
1788712330 22.78° C 58% 1021.5 hPa 0 mm - - -
1788710530 23.33° C 56% 1021.6 hPa 0 mm - - -
1788708730 23.89° C 54% 1021.6 hPa 0 mm - - -
1788706930 23.89° C 54% 1021.8 hPa 0 mm - - -
1788705131 23.89° C 54% 1022.1 hPa 0 mm - - -
1788703331 24.44° C 53% 1022.4 hPa 0 mm - - -
1788701531 23.89° C 55% 1022.5 hPa 0 mm - - -
1788699731 23.89° C 55% 1022.8 hPa 0 mm - - -
1788697930 23.33° C 57% 1023 hPa 0 mm - - -
1788696130 23.33° C 57% 1023.4 hPa 0 mm - - -
1788694331 22.78° C 60% 1023.5 hPa 0 mm - - -
1788692530 22.22° C 62% 1023.6 hPa 0 mm - - -
1788690731 21.67° C 62% 1023.9 hPa 0 mm - - -
1788688931 21.11° C 63% 1024.1 hPa 0 mm - - -
1788687130 20.56° C 73% 1024.6 hPa 0 mm - - -
1788685330 19.44° C 76% 1024.6 hPa 0 mm - - -
1788683530 18.89° C 78% 1024.6 hPa 0 mm - - -
1788681730 17.78° C 78% 1024.8 hPa 0 mm - - -
1788679929 16.11° C 81% 1024.7 hPa 0 mm - - -
1788678129 15° C 84% 1024.2 hPa 0 mm - - -
1788676330 13.89° C 88% 1024.3 hPa 0 mm - - -
1788674530 13.33° C 89% 1024.1 hPa 0 mm - - -

* Rain since midnight (hover to see other rain measurements)
** Current wind speed in m/s (hover to see current wind gust speed)